NKS1984 KATL-KFLL
Flight info
| Callsign | NKS1984 |
|---|---|
| Flight time | N/A |
| Altitude | 39000 |
| Route | SMLTZ3 WALET ZPLEN TEEKY3 |
| Aircraft | A20N/M-SDE2E3FGHIRWXY/LB1 |
Departure
| Time | 2026-05-03 22:23 |
|---|---|
| Airport | Hartsfield Jackson Atlanta International Airport (KATL) |
Arrival
| Time | N/A |
|---|---|
| Airport | Fort Lauderdale Hollywood International Airport (KFLL) |
| Time | Latitude | Longitude | Altitude | Speed | Heading |
|---|---|---|---|---|---|
| 2026-05-03 21:49 | 33.63833 | -84.42624 | 1004 ft | 0 kts | 90° |
| 2026-05-03 22:06 | 33.63833 | -84.42623 | 1004 ft | 0 kts | 90° |
| 2026-05-03 22:06 | 33.63833 | -84.42638 | 1005 ft | 2 kts | 90° |
| 2026-05-03 22:06 | 33.63833 | -84.42657 | 1006 ft | 2 kts | 111° |
| 2026-05-03 22:07 | 33.63841 | -84.42673 | 1006 ft | 2 kts | 138° |
| 2026-05-03 22:07 | 33.63854 | -84.42682 | 1006 ft | 2 kts | 167° |
| 2026-05-03 22:07 | 33.63863 | -84.42683 | 1006 ft | 1 kts | 184° |
| 2026-05-03 22:07 | 33.63867 | -84.42683 | 1006 ft | 0 kts | 181° |
| 2026-05-03 22:14 | 33.63866 | -84.42683 | 1006 ft | 0 kts | 182° |
| 2026-05-03 22:14 | 33.63844 | -84.42718 | 1006 ft | 8 kts | 228° |
| 2026-05-03 22:14 | 33.63778 | -84.42734 | 1005 ft | 12 kts | 182° |
| 2026-05-03 22:14 | 33.63685 | -84.42729 | 1004 ft | 13 kts | 150° |
| 2026-05-03 22:15 | 33.63655 | -84.42621 | 1002 ft | 15 kts | 91° |
| 2026-05-03 22:15 | 33.63655 | -84.42486 | 999 ft | 17 kts | 91° |
| 2026-05-03 22:15 | 33.63655 | -84.42331 | 993 ft | 20 kts | 90° |
| 2026-05-03 22:15 | 33.63656 | -84.42149 | 986 ft | 23 kts | 91° |
| 2026-05-03 22:16 | 33.63655 | -84.41953 | 977 ft | 24 kts | 90° |
| 2026-05-03 22:16 | 33.63657 | -84.41730 | 968 ft | 27 kts | 89° |
| 2026-05-03 22:16 | 33.63660 | -84.41504 | 963 ft | 22 kts | 99° |
| 2026-05-03 22:16 | 33.63656 | -84.41328 | 963 ft | 20 kts | 90° |
| 2026-05-03 22:17 | 33.63656 | -84.41156 | 963 ft | 20 kts | 90° |
| 2026-05-03 22:17 | 33.63656 | -84.40987 | 959 ft | 14 kts | 90° |
| 2026-05-03 22:17 | 33.63656 | -84.40968 | 959 ft | 0 kts | 90° |
| 2026-05-03 22:18 | 33.63656 | -84.40959 | 958 ft | 4 kts | 90° |
| 2026-05-03 22:19 | 33.63616 | -84.40907 | 956 ft | 13 kts | 178° |
| 2026-05-03 22:19 | 33.63564 | -84.40908 | 956 ft | 0 kts | 181° |
| 2026-05-03 22:20 | 33.63554 | -84.40908 | 956 ft | 12 kts | 181° |
| 2026-05-03 22:21 | 33.63475 | -84.40928 | 957 ft | 2 kts | 286° |
| 2026-05-03 22:21 | 33.63475 | -84.40942 | 958 ft | 0 kts | 268° |
| 2026-05-03 22:21 | 33.63475 | -84.40941 | 957 ft | 0 kts | 268° |
| 2026-05-03 22:21 | 33.63475 | -84.40934 | 957 ft | 1 kts | 268° |
| 2026-05-03 22:22 | 33.63476 | -84.40924 | 957 ft | 1 kts | 268° |
| 2026-05-03 22:22 | 33.63472 | -84.41245 | 963 ft | 75 kts | 270° |
| 2026-05-03 22:22 | 33.63471 | -84.42154 | 989 ft | 139 kts | 270° |
| 2026-05-03 22:22 | 33.63471 | -84.43527 | 1181 ft | 177 kts | 271° |
| 2026-05-03 22:23 | 33.63462 | -84.44888 | 2228 ft | 157 kts | 271° |
| 2026-05-03 22:23 | 33.63454 | -84.46193 | 2965 ft | 160 kts | 271° |
| 2026-05-03 22:23 | 33.63460 | -84.47573 | 3554 ft | 174 kts | 271° |
| 2026-05-03 22:23 | 33.63465 | -84.49072 | 4119 ft | 191 kts | 271° |
| 2026-05-03 22:24 | 33.63469 | -84.50696 | 4647 ft | 205 kts | 271° |
| 2026-05-03 22:24 | 33.63472 | -84.52441 | 5061 ft | 225 kts | 271° |
| 2026-05-03 22:24 | 33.63473 | -84.54190 | 5590 ft | 237 kts | 271° |
| 2026-05-03 22:24 | 33.63472 | -84.55859 | 6120 ft | 248 kts | 271° |
| 2026-05-03 22:25 | 33.63470 | -84.57567 | 6675 ft | 257 kts | 271° |
| 2026-05-03 22:25 | 33.63467 | -84.59528 | 7468 ft | 259 kts | 271° |
| 2026-05-03 22:25 | 33.63464 | -84.61708 | 8395 ft | 260 kts | 271° |
| 2026-05-03 22:25 | 33.63375 | -84.63873 | 9256 ft | 263 kts | 259° |
| 2026-05-03 22:26 | 33.62642 | -84.65833 | 10052 ft | 270 kts | 236° |
| 2026-05-03 22:26 | 33.61199 | -84.67330 | 10902 ft | 279 kts | 216° |
| 2026-05-03 22:26 | 33.60731 | -84.67666 | 11148 ft | 280 kts | 216° |
| 2026-05-03 22:26 | 33.59224 | -84.68688 | 11870 ft | 283 kts | 211° |
| 2026-05-03 22:27 | 33.57336 | -84.69402 | 12612 ft | 296 kts | 193° |
| 2026-05-03 22:27 | 33.55240 | -84.69358 | 13350 ft | 308 kts | 179° |
| 2026-05-03 22:27 | 33.53093 | -84.68969 | 13806 ft | 312 kts | 177° |
| 2026-05-03 22:27 | 33.50977 | -84.68533 | 13958 ft | 313 kts | 177° |
| 2026-05-03 22:28 | 33.48829 | -84.68098 | 13979 ft | 312 kts | 177° |
| 2026-05-03 22:28 | 33.46694 | -84.67682 | 13991 ft | 311 kts | 178° |
| 2026-05-03 22:28 | 33.44556 | -84.67274 | 13997 ft | 311 kts | 178° |
| 2026-05-03 22:28 | 33.42429 | -84.66583 | 13995 ft | 321 kts | 162° |
| 2026-05-03 22:29 | 33.40516 | -84.65180 | 14005 ft | 320 kts | 139° |
| 2026-05-03 22:29 | 33.38927 | -84.63404 | 13970 ft | 306 kts | 134° |
| 2026-05-03 22:29 | 33.37442 | -84.61581 | 13843 ft | 308 kts | 134° |
| 2026-05-03 22:29 | 33.35932 | -84.59721 | 14156 ft | 313 kts | 134° |
| 2026-05-03 22:30 | 33.34405 | -84.57866 | 14972 ft | 312 kts | 134° |
| 2026-05-03 22:30 | 33.32873 | -84.56025 | 15715 ft | 313 kts | 135° |
| 2026-05-03 22:30 | 33.31336 | -84.54194 | 16358 ft | 316 kts | 135° |
| 2026-05-03 22:30 | 33.29766 | -84.52333 | 16997 ft | 320 kts | 135° |
| 2026-05-03 22:31 | 33.28182 | -84.50462 | 17626 ft | 323 kts | 135° |
| 2026-05-03 22:31 | 33.26580 | -84.48573 | 18240 ft | 326 kts | 135° |
| 2026-05-03 22:31 | 33.24970 | -84.46675 | 18837 ft | 329 kts | 135° |
| 2026-05-03 22:31 | 33.23319 | -84.44733 | 19430 ft | 332 kts | 135° |
| 2026-05-03 22:32 | 33.21648 | -84.42767 | 20016 ft | 335 kts | 135° |
| 2026-05-03 22:32 | 33.19992 | -84.40822 | 20584 ft | 338 kts | 135° |
| 2026-05-03 22:32 | 33.18315 | -84.38853 | 21147 ft | 341 kts | 135° |
| 2026-05-03 22:32 | 33.16607 | -84.36847 | 21707 ft | 344 kts | 135° |
| 2026-05-03 22:33 | 33.14904 | -84.34850 | 22251 ft | 347 kts | 135° |
| 2026-05-03 22:33 | 33.13314 | -84.32978 | 22748 ft | 350 kts | 135° |
| 2026-05-03 22:33 | 33.11595 | -84.30951 | 23274 ft | 352 kts | 135° |
| 2026-05-03 22:33 | 33.09832 | -84.28878 | 23797 ft | 355 kts | 135° |
| 2026-05-03 22:34 | 33.08067 | -84.26810 | 24303 ft | 358 kts | 135° |
| 2026-05-03 22:34 | 33.06292 | -84.24734 | 24795 ft | 361 kts | 135° |
| 2026-05-03 22:34 | 33.04512 | -84.22652 | 25273 ft | 364 kts | 135° |
| 2026-05-03 22:34 | 33.02689 | -84.20524 | 25747 ft | 366 kts | 135° |
| 2026-05-03 22:35 | 33.00794 | -84.18504 | 26196 ft | 369 kts | 143° |
| 2026-05-03 22:35 | 32.98622 | -84.16869 | 26644 ft | 372 kts | 153° |
| 2026-05-03 22:35 | 32.96214 | -84.15663 | 27090 ft | 374 kts | 160° |
| 2026-05-03 22:35 | 32.93767 | -84.14652 | 27512 ft | 377 kts | 161° |
| 2026-05-03 22:36 | 32.91273 | -84.13652 | 27915 ft | 379 kts | 161° |
| 2026-05-03 22:36 | 32.88737 | -84.12632 | 28208 ft | 385 kts | 161° |
| 2026-05-03 22:36 | 32.86235 | -84.11621 | 28362 ft | 394 kts | 161° |
| 2026-05-03 22:36 | 32.83614 | -84.10555 | 28522 ft | 402 kts | 161° |
| 2026-05-03 22:37 | 32.80971 | -84.09476 | 28677 ft | 410 kts | 161° |
| 2026-05-03 22:37 | 32.78247 | -84.08360 | 28826 ft | 418 kts | 161° |
| 2026-05-03 22:37 | 32.75487 | -84.07229 | 28971 ft | 425 kts | 161° |
| 2026-05-03 22:37 | 32.72665 | -84.06072 | 29155 ft | 431 kts | 161° |
| 2026-05-03 22:38 | 32.69814 | -84.04903 | 29441 ft | 434 kts | 161° |
| 2026-05-03 22:38 | 32.66991 | -84.03746 | 29749 ft | 435 kts | 161° |
| 2026-05-03 22:38 | 32.64114 | -84.02567 | 30038 ft | 437 kts | 161° |
| 2026-05-03 22:38 | 32.61257 | -84.01398 | 30311 ft | 439 kts | 161° |
| 2026-05-03 22:39 | 32.58383 | -84.00221 | 30573 ft | 441 kts | 161° |
| 2026-05-03 22:39 | 32.55460 | -83.99026 | 30829 ft | 443 kts | 161° |
| 2026-05-03 22:39 | 32.52546 | -83.97835 | 31073 ft | 445 kts | 161° |
| 2026-05-03 22:39 | 32.49641 | -83.96648 | 31304 ft | 446 kts | 161° |
| 2026-05-03 22:40 | 32.46702 | -83.95447 | 31527 ft | 448 kts | 161° |
| 2026-05-03 22:40 | 32.43739 | -83.94237 | 31743 ft | 449 kts | 161° |
| 2026-05-03 22:40 | 32.40812 | -83.93045 | 31947 ft | 451 kts | 161° |
| 2026-05-03 22:40 | 32.37821 | -83.91829 | 32146 ft | 452 kts | 161° |
| 2026-05-03 22:41 | 32.34835 | -83.90699 | 32333 ft | 454 kts | 163° |
| 2026-05-03 22:41 | 32.31825 | -83.89619 | 32521 ft | 455 kts | 163° |
| 2026-05-03 22:41 | 32.28817 | -83.88542 | 32693 ft | 456 kts | 163° |
| 2026-05-03 22:41 | 32.25755 | -83.87445 | 32860 ft | 457 kts | 163° |
| 2026-05-03 22:42 | 32.22741 | -83.86365 | 33019 ft | 458 kts | 163° |
| 2026-05-03 22:42 | 32.19695 | -83.85274 | 33174 ft | 460 kts | 163° |
| 2026-05-03 22:42 | 32.16624 | -83.84176 | 33323 ft | 461 kts | 163° |
| 2026-05-03 22:42 | 32.13576 | -83.83085 | 33465 ft | 462 kts | 163° |
| 2026-05-03 22:43 | 32.10495 | -83.81983 | 33602 ft | 463 kts | 163° |
| 2026-05-03 22:43 | 32.07410 | -83.80881 | 33734 ft | 464 kts | 163° |
| 2026-05-03 22:43 | 32.04327 | -83.79780 | 33860 ft | 465 kts | 163° |
| 2026-05-03 22:43 | 32.01223 | -83.78672 | 33982 ft | 466 kts | 163° |
| 2026-05-03 22:44 | 31.98136 | -83.77571 | 34099 ft | 466 kts | 163° |
| 2026-05-03 22:44 | 31.95055 | -83.76473 | 34211 ft | 467 kts | 163° |
| 2026-05-03 22:44 | 31.91914 | -83.75354 | 34318 ft | 468 kts | 163° |
| 2026-05-03 22:44 | 31.88816 | -83.74252 | 34420 ft | 469 kts | 163° |
| 2026-05-03 22:45 | 31.85704 | -83.73149 | 34518 ft | 469 kts | 163° |
| 2026-05-03 22:45 | 31.79437 | -83.70927 | 34692 ft | 471 kts | 163° |
| 2026-05-03 22:46 | 31.73170 | -83.68701 | 34852 ft | 472 kts | 163° |
| 2026-05-03 22:46 | 31.66938 | -83.66263 | 35072 ft | 471 kts | 158° |
| 2026-05-03 22:46 | 31.63968 | -83.64807 | 35589 ft | 461 kts | 157° |
| 2026-05-03 22:47 | 31.61076 | -83.63374 | 36201 ft | 449 kts | 157° |
| 2026-05-03 22:47 | 31.58249 | -83.61976 | 36690 ft | 441 kts | 157° |
| 2026-05-03 22:47 | 31.55434 | -83.60587 | 36896 ft | 440 kts | 157° |
| 2026-05-03 22:48 | 31.49764 | -83.57800 | 37100 ft | 442 kts | 157° |
| 2026-05-03 22:48 | 31.46949 | -83.56422 | 37237 ft | 442 kts | 157° |
| 2026-05-03 22:48 | 31.44119 | -83.55036 | 37377 ft | 442 kts | 157° |
| 2026-05-03 22:48 | 31.41276 | -83.53647 | 37510 ft | 441 kts | 157° |
| 2026-05-03 22:49 | 31.38460 | -83.52271 | 37635 ft | 441 kts | 157° |
| 2026-05-03 22:49 | 31.35636 | -83.50892 | 37756 ft | 441 kts | 157° |
| 2026-05-03 22:49 | 31.33068 | -83.49638 | 37863 ft | 441 kts | 157° |
| 2026-05-03 22:49 | 31.30252 | -83.48265 | 37978 ft | 441 kts | 157° |
| 2026-05-03 22:50 | 31.27445 | -83.46897 | 38087 ft | 441 kts | 157° |
| 2026-05-03 22:50 | 31.22172 | -83.44331 | 38286 ft | 441 kts | 157° |
| 2026-05-03 22:50 | 31.19365 | -83.42965 | 38390 ft | 441 kts | 157° |
| 2026-05-03 22:51 | 31.16516 | -83.41580 | 38491 ft | 441 kts | 157° |
| 2026-05-03 22:51 | 31.10887 | -83.38848 | 38680 ft | 441 kts | 157° |
| 2026-05-03 22:52 | 31.05285 | -83.36131 | 38860 ft | 441 kts | 157° |
| 2026-05-03 22:52 | 30.99866 | -83.33498 | 38999 ft | 442 kts | 157° |
| 2026-05-03 22:53 | 30.94181 | -83.30720 | 39006 ft | 442 kts | 158° |
| 2026-05-03 22:53 | 30.88616 | -83.28020 | 39009 ft | 442 kts | 158° |
| 2026-05-03 22:54 | 30.83031 | -83.25335 | 39009 ft | 442 kts | 158° |
| 2026-05-03 22:54 | 30.77381 | -83.22573 | 39054 ft | 440 kts | 157° |
| 2026-05-03 22:54 | 30.74930 | -83.21495 | 39590 ft | 427 kts | 161° |
| 2026-05-03 22:55 | 30.72101 | -83.20247 | 39402 ft | 436 kts | 158° |
| 2026-05-03 22:55 | 30.69324 | -83.18893 | 39179 ft | 441 kts | 157° |
| 2026-05-03 22:55 | 30.66478 | -83.17487 | 39083 ft | 442 kts | 157° |
| 2026-05-03 22:56 | 30.60835 | -83.14724 | 39025 ft | 442 kts | 157° |
| 2026-05-03 22:56 | 30.55182 | -83.11991 | 39013 ft | 442 kts | 158° |
| 2026-05-03 22:57 | 30.49517 | -83.09271 | 39010 ft | 442 kts | 158° |
| 2026-05-03 22:57 | 30.43845 | -83.06556 | 39010 ft | 442 kts | 158° |
| 2026-05-03 22:58 | 30.38189 | -83.03854 | 39009 ft | 442 kts | 158° |
| 2026-05-03 22:58 | 30.32529 | -83.01154 | 39009 ft | 442 kts | 158° |
| 2026-05-03 22:59 | 30.26864 | -82.98455 | 39009 ft | 442 kts | 158° |
| 2026-05-03 22:59 | 30.21200 | -82.95760 | 39009 ft | 441 kts | 158° |
| 2026-05-03 23:00 | 30.15513 | -82.93057 | 39009 ft | 441 kts | 158° |
| 2026-05-03 23:00 | 30.09840 | -82.90366 | 39009 ft | 441 kts | 158° |
| 2026-05-03 23:01 | 30.04174 | -82.87679 | 39009 ft | 441 kts | 158° |
| 2026-05-03 23:01 | 29.98583 | -82.85032 | 39009 ft | 441 kts | 158° |
| 2026-05-03 23:02 | 29.92908 | -82.82348 | 39010 ft | 441 kts | 158° |
| 2026-05-03 23:02 | 29.87252 | -82.79681 | 39009 ft | 441 kts | 158° |
| 2026-05-03 23:03 | 29.81616 | -82.77035 | 39009 ft | 441 kts | 158° |
| 2026-05-03 23:03 | 29.76021 | -82.74406 | 39009 ft | 441 kts | 158° |
| 2026-05-03 23:04 | 29.70333 | -82.71732 | 39009 ft | 441 kts | 158° |
| 2026-05-03 23:04 | 29.64698 | -82.69084 | 39009 ft | 441 kts | 158° |
| 2026-05-03 23:05 | 29.59007 | -82.66414 | 39009 ft | 441 kts | 158° |
| 2026-05-03 23:05 | 29.53360 | -82.63766 | 39009 ft | 441 kts | 158° |
| 2026-05-03 23:06 | 29.47691 | -82.61111 | 39009 ft | 441 kts | 158° |
| 2026-05-03 23:06 | 29.42008 | -82.58453 | 39009 ft | 441 kts | 158° |
| 2026-05-03 23:07 | 29.36336 | -82.55804 | 39010 ft | 441 kts | 158° |
| 2026-05-03 23:07 | 29.30709 | -82.53178 | 39010 ft | 441 kts | 158° |
| 2026-05-03 23:08 | 29.25042 | -82.50537 | 39010 ft | 441 kts | 158° |
| 2026-05-03 23:08 | 29.19343 | -82.47886 | 39010 ft | 441 kts | 158° |
| 2026-05-03 23:09 | 29.13653 | -82.45239 | 39010 ft | 441 kts | 158° |
| 2026-05-03 23:09 | 29.07976 | -82.42606 | 39010 ft | 441 kts | 158° |
| 2026-05-03 23:10 | 29.02312 | -82.39978 | 39010 ft | 441 kts | 158° |
| 2026-05-03 23:10 | 28.96632 | -82.37345 | 39010 ft | 440 kts | 158° |
| 2026-05-03 23:11 | 28.90952 | -82.34716 | 39010 ft | 440 kts | 158° |
| 2026-05-03 23:11 | 28.85312 | -82.32090 | 39010 ft | 440 kts | 158° |
| 2026-05-03 23:12 | 28.79777 | -82.29527 | 39010 ft | 440 kts | 158° |
| 2026-05-03 23:12 | 28.74433 | -82.27060 | 39009 ft | 440 kts | 158° |
| 2026-05-03 23:13 | 28.70061 | -82.25046 | 39009 ft | 440 kts | 158° |
| 2026-05-03 23:13 | 28.64586 | -82.22526 | 39009 ft | 440 kts | 158° |
| 2026-05-03 23:14 | 28.59786 | -82.20319 | 39009 ft | 440 kts | 158° |
| 2026-05-03 23:14 | 28.54037 | -82.17682 | 39009 ft | 440 kts | 158° |
| 2026-05-03 23:15 | 28.48368 | -82.15083 | 39009 ft | 440 kts | 158° |
| 2026-05-03 23:15 | 28.42676 | -82.12475 | 39009 ft | 440 kts | 158° |
| 2026-05-03 23:16 | 28.36765 | -82.10835 | 39009 ft | 440 kts | 175° |
| 2026-05-03 23:16 | 28.30845 | -82.11158 | 39013 ft | 440 kts | 189° |
| 2026-05-03 23:17 | 28.25187 | -82.12341 | 39010 ft | 440 kts | 191° |
| 2026-05-03 23:17 | 28.21208 | -82.13200 | 39010 ft | 440 kts | 191° |
| 2026-05-03 23:18 | 28.15193 | -82.14482 | 39009 ft | 440 kts | 191° |
| 2026-05-03 23:18 | 28.09184 | -82.15750 | 39009 ft | 440 kts | 191° |
| 2026-05-03 23:19 | 28.03151 | -82.17018 | 39009 ft | 440 kts | 191° |
| 2026-05-03 23:19 | 27.97276 | -82.18250 | 39009 ft | 440 kts | 191° |
| 2026-05-03 23:20 | 27.91232 | -82.19515 | 39009 ft | 440 kts | 191° |
| 2026-05-03 23:20 | 27.85309 | -82.20750 | 39009 ft | 440 kts | 190° |
| 2026-05-03 23:21 | 27.79298 | -82.22000 | 39009 ft | 440 kts | 191° |
| 2026-05-03 23:21 | 27.73280 | -82.23254 | 39009 ft | 440 kts | 191° |
| 2026-05-03 23:22 | 27.64276 | -82.25129 | 39009 ft | 440 kts | 191° |
| 2026-05-03 23:22 | 27.58253 | -82.26381 | 39009 ft | 439 kts | 191° |
| 2026-05-03 23:23 | 27.52249 | -82.27626 | 39009 ft | 439 kts | 191° |
| 2026-05-03 23:23 | 27.46218 | -82.28876 | 39009 ft | 439 kts | 189° |
| 2026-05-03 23:24 | 27.40148 | -82.29226 | 39007 ft | 439 kts | 175° |
| 2026-05-03 23:24 | 27.34164 | -82.27879 | 38860 ft | 435 kts | 161° |
| 2026-05-03 23:25 | 27.31494 | -82.26678 | 38433 ft | 433 kts | 154° |
| 2026-05-03 23:25 | 27.28803 | -82.25078 | 37870 ft | 432 kts | 150° |
| 2026-05-03 23:25 | 27.26239 | -82.23434 | 37383 ft | 429 kts | 150° |
| 2026-05-03 23:25 | 27.23647 | -82.21759 | 36853 ft | 427 kts | 150° |
| 2026-05-03 23:26 | 27.21089 | -82.20116 | 36280 ft | 427 kts | 150° |
| 2026-05-03 23:26 | 27.18500 | -82.18462 | 35677 ft | 428 kts | 150° |
| 2026-05-03 23:26 | 27.15898 | -82.16807 | 35068 ft | 428 kts | 150° |
| 2026-05-03 23:26 | 27.13320 | -82.15172 | 34606 ft | 424 kts | 150° |
| 2026-05-03 23:27 | 27.10767 | -82.13554 | 34175 ft | 420 kts | 150° |
| 2026-05-03 23:27 | 27.08232 | -82.11950 | 33724 ft | 417 kts | 150° |
| 2026-05-03 23:27 | 27.05712 | -82.10356 | 33264 ft | 414 kts | 150° |
| 2026-05-03 23:27 | 27.03383 | -82.08885 | 32839 ft | 411 kts | 150° |
| 2026-05-03 23:28 | 27.01015 | -82.07384 | 32404 ft | 408 kts | 149° |
| 2026-05-03 23:28 | 26.98956 | -82.05959 | 32014 ft | 405 kts | 146° |
| 2026-05-03 23:28 | 26.96958 | -82.04386 | 31620 ft | 403 kts | 143° |
| 2026-05-03 23:28 | 26.94763 | -82.02399 | 31178 ft | 399 kts | 139° |
| 2026-05-03 23:29 | 26.92859 | -82.00420 | 30780 ft | 396 kts | 135° |
| 2026-05-03 23:29 | 26.90948 | -81.98202 | 30316 ft | 394 kts | 133° |
| 2026-05-03 23:29 | 26.89162 | -81.96081 | 29891 ft | 391 kts | 133° |
| 2026-05-03 23:29 | 26.87306 | -81.93889 | 29454 ft | 389 kts | 133° |
| 2026-05-03 23:30 | 26.85508 | -81.91767 | 29030 ft | 386 kts | 133° |
| 2026-05-03 23:30 | 26.83824 | -81.89779 | 28631 ft | 384 kts | 133° |
| 2026-05-03 23:30 | 26.81974 | -81.87594 | 28191 ft | 381 kts | 133° |
| 2026-05-03 23:30 | 26.80148 | -81.85438 | 27756 ft | 378 kts | 133° |
| 2026-05-03 23:31 | 26.78357 | -81.83327 | 27327 ft | 376 kts | 133° |
| 2026-05-03 23:31 | 26.76529 | -81.81176 | 26889 ft | 373 kts | 134° |
| 2026-05-03 23:31 | 26.74739 | -81.79090 | 26461 ft | 370 kts | 134° |
| 2026-05-03 23:31 | 26.72963 | -81.77029 | 26090 ft | 366 kts | 134° |
| 2026-05-03 23:32 | 26.71180 | -81.74955 | 26018 ft | 367 kts | 134° |
| 2026-05-03 23:32 | 26.69427 | -81.72916 | 26010 ft | 368 kts | 134° |
| 2026-05-03 23:32 | 26.67634 | -81.70831 | 26007 ft | 368 kts | 134° |
| 2026-05-03 23:32 | 26.65857 | -81.68765 | 26006 ft | 368 kts | 134° |
| 2026-05-03 23:33 | 26.64087 | -81.66699 | 26005 ft | 368 kts | 132° |
| 2026-05-03 23:33 | 26.62429 | -81.64561 | 25995 ft | 367 kts | 128° |
| 2026-05-03 23:33 | 26.60930 | -81.62387 | 25608 ft | 364 kts | 127° |
| 2026-05-03 23:33 | 26.59390 | -81.60092 | 24614 ft | 372 kts | 127° |
| 2026-05-03 23:34 | 26.57852 | -81.57790 | 23694 ft | 375 kts | 127° |
| 2026-05-03 23:34 | 26.56289 | -81.55456 | 22976 ft | 371 kts | 127° |
| 2026-05-03 23:34 | 26.54758 | -81.53175 | 22309 ft | 367 kts | 127° |
| 2026-05-03 23:34 | 26.53241 | -81.50918 | 21634 ft | 363 kts | 127° |
| 2026-05-03 23:35 | 26.51746 | -81.48696 | 20962 ft | 359 kts | 127° |
| 2026-05-03 23:35 | 26.50252 | -81.46476 | 20288 ft | 355 kts | 127° |
| 2026-05-03 23:35 | 26.48777 | -81.44287 | 19618 ft | 352 kts | 127° |
| 2026-05-03 23:35 | 26.47314 | -81.42115 | 18951 ft | 348 kts | 127° |
| 2026-05-03 23:36 | 26.45877 | -81.39983 | 18292 ft | 344 kts | 127° |
| 2026-05-03 23:36 | 26.44456 | -81.37876 | 17638 ft | 341 kts | 127° |
| 2026-05-03 23:36 | 26.43039 | -81.35778 | 17050 ft | 336 kts | 127° |
| 2026-05-03 23:36 | 26.41647 | -81.33715 | 16586 ft | 327 kts | 128° |
| 2026-05-03 23:37 | 26.40240 | -81.31756 | 16170 ft | 318 kts | 129° |
| 2026-05-03 23:37 | 26.38857 | -81.29896 | 15785 ft | 310 kts | 130° |
| 2026-05-03 23:37 | 26.37498 | -81.28079 | 15415 ft | 302 kts | 130° |
| 2026-05-03 23:37 | 26.36158 | -81.26289 | 15052 ft | 296 kts | 130° |
| 2026-05-03 23:38 | 26.34825 | -81.24508 | 14692 ft | 291 kts | 130° |
| 2026-05-03 23:38 | 26.33546 | -81.22797 | 14347 ft | 288 kts | 130° |
| 2026-05-03 23:38 | 26.32270 | -81.21091 | 14002 ft | 285 kts | 130° |
| 2026-05-03 23:38 | 26.30992 | -81.19384 | 13657 ft | 283 kts | 130° |
| 2026-05-03 23:39 | 26.29750 | -81.17725 | 13321 ft | 281 kts | 130° |
| 2026-05-03 23:39 | 26.28495 | -81.16053 | 12993 ft | 279 kts | 130° |
| 2026-05-03 23:39 | 26.27249 | -81.14409 | 12691 ft | 277 kts | 130° |
| 2026-05-03 23:39 | 26.25997 | -81.12762 | 12389 ft | 276 kts | 130° |
| 2026-05-03 23:40 | 26.24743 | -81.11114 | 12097 ft | 279 kts | 130° |
| 2026-05-03 23:40 | 26.23442 | -81.09403 | 11852 ft | 290 kts | 130° |
| 2026-05-03 23:40 | 26.22274 | -81.07867 | 11520 ft | 285 kts | 130° |
| 2026-05-03 23:40 | 26.21003 | -81.06195 | 11193 ft | 280 kts | 130° |
| 2026-05-03 23:41 | 26.19978 | -81.04850 | 11031 ft | 288 kts | 130° |
| 2026-05-03 23:41 | 26.18679 | -81.03146 | 11002 ft | 291 kts | 130° |
| 2026-05-03 23:41 | 26.17715 | -81.01881 | 10999 ft | 292 kts | 130° |
| 2026-05-03 23:41 | 26.16388 | -81.00137 | 10997 ft | 292 kts | 130° |
| 2026-05-03 23:42 | 26.15214 | -80.98443 | 10959 ft | 290 kts | 121° |
| 2026-05-03 23:42 | 26.14446 | -80.96532 | 10483 ft | 290 kts | 105° |